sensor_id;sensor_type;location;lat;lon;timestamp;P1;durP1;ratioP1;P2;durP2;ratioP2
56271;SDS011;42177;48.914;18.160;2022-11-06T00:00:01;9.8;;;6.3;;
56271;SDS011;42177;48.914;18.160;2022-11-06T00:05:01;9.8;;;6.3;;
56271;SDS011;42177;48.914;18.160;2022-11-06T00:10:01;9.3;;;5.6;;
56271;SDS011;42177;48.914;18.160;2022-11-06T00:15:01;9.3;;;5.6;;
56271;SDS011;42177;48.914;18.160;2022-11-06T00:20:01;9.1;;;5.5;;
56271;SDS011;42177;48.914;18.160;2022-11-06T00:25:01;9.1;;;5.5;;
56271;SDS011;42177;48.914;18.160;2022-11-06T00:30:01;8.6;;;5.8;;
56271;SDS011;42177;48.914;18.160;2022-11-06T00:35:01;8.6;;;5.8;;
56271;SDS011;42177;48.914;18.160;2022-11-06T00:40:01;9.7;;;6.1;;
56271;SDS011;42177;48.914;18.160;2022-11-06T00:45:01;9.7;;;6.1;;
56271;SDS011;42177;48.914;18.160;2022-11-06T00:50:01;11;;;6.5;;
56271;SDS011;42177;48.914;18.160;2022-11-06T00:55:01;11;;;6.5;;
56271;SDS011;42177;48.914;18.160;2022-11-06T01:00:01;8.8;;;6.1;;
56271;SDS011;42177;48.914;18.160;2022-11-06T01:05:01;8.8;;;6.1;;
56271;SDS011;42177;48.914;18.160;2022-11-06T01:10:01;8.9;;;6.2;;
56271;SDS011;42177;48.914;18.160;2022-11-06T01:15:01;8.9;;;6.2;;
56271;SDS011;42177;48.914;18.160;2022-11-06T01:20:01;8.4;;;5.9;;
56271;SDS011;42177;48.914;18.160;2022-11-06T01:25:01;8.4;;;5.9;;
56271;SDS011;42177;48.914;18.160;2022-11-06T01:30:01;8.1;;;5.3;;
56271;SDS011;42177;48.914;18.160;2022-11-06T01:35:01;8.1;;;5.3;;
56271;SDS011;42177;48.914;18.160;2022-11-06T01:40:01;8.7;;;5.3;;
56271;SDS011;42177;48.914;18.160;2022-11-06T01:45:13;8.7;;;5.3;;
56271;SDS011;42177;48.914;18.160;2022-11-06T01:50:02;8.7;;;5.1;;
56271;SDS011;42177;48.914;18.160;2022-11-06T01:55:02;8.7;;;5.1;;
56271;SDS011;42177;48.914;18.160;2022-11-06T02:00:02;8;;;4.7;;
56271;SDS011;42177;48.914;18.160;2022-11-06T02:05:01;8;;;4.7;;
56271;SDS011;42177;48.914;18.160;2022-11-06T02:10:01;7.8;;;5;;
56271;SDS011;42177;48.914;18.160;2022-11-06T02:15:03;7.8;;;5;;
56271;SDS011;42177;48.914;18.160;2022-11-06T02:20:03;13.2;;;5.8;;
56271;SDS011;42177;48.914;18.160;2022-11-06T02:25:05;13.2;;;5.8;;
56271;SDS011;42177;48.914;18.160;2022-11-06T02:30:02;11.5;;;6.8;;
56271;SDS011;42177;48.914;18.160;2022-11-06T02:35:02;11.5;;;6.8;;
56271;SDS011;42177;48.914;18.160;2022-11-06T02:40:02;11.9;;;6.8;;
56271;SDS011;42177;48.914;18.160;2022-11-06T02:45:01;11.9;;;6.8;;
56271;SDS011;42177;48.914;18.160;2022-11-06T02:50:03;12.6;;;7.2;;
56271;SDS011;42177;48.914;18.160;2022-11-06T02:55:02;12.6;;;7.2;;
56271;SDS011;42177;48.914;18.160;2022-11-06T03:00:03;12;;;7.6;;
56271;SDS011;42177;48.914;18.160;2022-11-06T03:05:04;12;;;7.6;;
56271;SDS011;42177;48.914;18.160;2022-11-06T03:10:01;12.8;;;7.9;;
56271;SDS011;42177;48.914;18.160;2022-11-06T03:15:02;12.8;;;7.9;;
56271;SDS011;42177;48.914;18.160;2022-11-06T03:20:03;13.4;;;7.7;;
56271;SDS011;42177;48.914;18.160;2022-11-06T03:25:01;13.4;;;7.7;;
56271;SDS011;42177;48.914;18.160;2022-11-06T03:30:02;11.9;;;7.2;;
56271;SDS011;42177;48.914;18.160;2022-11-06T03:35:03;11.9;;;7.2;;
56271;SDS011;42177;48.914;18.160;2022-11-06T03:40:02;11.7;;;8.1;;
56271;SDS011;42177;48.914;18.160;2022-11-06T03:45:02;11.7;;;8.1;;
56271;SDS011;42177;48.914;18.160;2022-11-06T03:50:02;11.6;;;7.6;;
56271;SDS011;42177;48.914;18.160;2022-11-06T03:55:02;11.6;;;7.6;;
56271;SDS011;42177;48.914;18.160;2022-11-06T04:00:03;14;;;8;;
56271;SDS011;42177;48.914;18.160;2022-11-06T04:05:02;14;;;8;;
56271;SDS011;42177;48.914;18.160;2022-11-06T04:10:01;12.9;;;7;;
56271;SDS011;42177;48.914;18.160;2022-11-06T04:15:01;12.9;;;7;;
56271;SDS011;42177;48.914;18.160;2022-11-06T04:20:02;11.6;;;7.1;;
56271;SDS011;42177;48.914;18.160;2022-11-06T04:25:03;11.6;;;7.1;;
56271;SDS011;42177;48.914;18.160;2022-11-06T04:30:03;12.5;;;7.8;;
56271;SDS011;42177;48.914;18.160;2022-11-06T04:35:03;12.5;;;7.8;;
56271;SDS011;42177;48.914;18.160;2022-11-06T04:40:02;15.1;;;8.3;;
56271;SDS011;42177;48.914;18.160;2022-11-06T04:45:02;15.1;;;8.3;;
56271;SDS011;42177;48.914;18.160;2022-11-06T04:50:01;12.5;;;7.6;;
56271;SDS011;42177;48.914;18.160;2022-11-06T04:55:01;12.5;;;7.6;;
56271;SDS011;42177;48.914;18.160;2022-11-06T05:00:01;12.6;;;7.5;;
56271;SDS011;42177;48.914;18.160;2022-11-06T05:05:01;12.6;;;7.5;;
56271;SDS011;42177;48.914;18.160;2022-11-06T05:10:01;14.5;;;7.6;;
56271;SDS011;42177;48.914;18.160;2022-11-06T05:15:01;14.5;;;7.6;;
56271;SDS011;42177;48.914;18.160;2022-11-06T05:20:01;10.5;;;7.1;;
56271;SDS011;42177;48.914;18.160;2022-11-06T05:25:01;10.5;;;7.1;;
56271;SDS011;42177;48.914;18.160;2022-11-06T05:30:01;12.7;;;7;;
56271;SDS011;42177;48.914;18.160;2022-11-06T05:35:01;12.7;;;7;;
56271;SDS011;42177;48.914;18.160;2022-11-06T05:40:01;13;;;7;;
56271;SDS011;42177;48.914;18.160;2022-11-06T05:45:01;13;;;7;;
56271;SDS011;42177;48.914;18.160;2022-11-06T05:50:01;11.4;;;6.4;;
56271;SDS011;42177;48.914;18.160;2022-11-06T05:55:01;11.4;;;6.4;;
56271;SDS011;42177;48.914;18.160;2022-11-06T06:00:01;10.7;;;6.2;;
56271;SDS011;42177;48.914;18.160;2022-11-06T06:05:01;10.7;;;6.2;;
56271;SDS011;42177;48.914;18.160;2022-11-06T06:10:01;13.2;;;6.4;;
56271;SDS011;42177;48.914;18.160;2022-11-06T06:15:01;13.2;;;6.4;;
56271;SDS011;42177;48.914;18.160;2022-11-06T06:20:01;10;;;5.9;;
56271;SDS011;42177;48.914;18.160;2022-11-06T06:25:01;10;;;5.9;;
56271;SDS011;42177;48.914;18.160;2022-11-06T06:30:01;14.2;;;6.3;;
56271;SDS011;42177;48.914;18.160;2022-11-06T06:35:01;14.2;;;6.3;;
56271;SDS011;42177;48.914;18.160;2022-11-06T06:40:01;13.3;;;6.5;;
56271;SDS011;42177;48.914;18.160;2022-11-06T06:45:01;13.3;;;6.5;;
56271;SDS011;42177;48.914;18.160;2022-11-06T06:50:01;13.5;;;6.6;;
56271;SDS011;42177;48.914;18.160;2022-11-06T06:55:01;13.5;;;6.6;;
56271;SDS011;42177;48.914;18.160;2022-11-06T07:00:01;14.1;;;6.7;;
56271;SDS011;42177;48.914;18.160;2022-11-06T07:05:01;14.1;;;6.7;;
56271;SDS011;42177;48.914;18.160;2022-11-06T07:10:01;11.1;;;6.3;;
56271;SDS011;42177;48.914;18.160;2022-11-06T07:15:01;11.1;;;6.3;;
56271;SDS011;42177;48.914;18.160;2022-11-06T07:20:01;13.2;;;6.6;;
56271;SDS011;42177;48.914;18.160;2022-11-06T07:25:01;13.2;;;6.6;;
56271;SDS011;42177;48.914;18.160;2022-11-06T07:30:01;14.4;;;6;;
56271;SDS011;42177;48.914;18.160;2022-11-06T07:35:01;14.4;;;6;;
56271;SDS011;42177;48.914;18.160;2022-11-06T07:40:01;14.3;;;6.5;;
56271;SDS011;42177;48.914;18.160;2022-11-06T07:45:01;14.3;;;6.5;;
56271;SDS011;42177;48.914;18.160;2022-11-06T07:50:01;14.8;;;6.9;;
56271;SDS011;42177;48.914;18.160;2022-11-06T07:55:01;14.8;;;6.9;;
56271;SDS011;42177;48.914;18.160;2022-11-06T08:00:02;12.1;;;7.5;;
56271;SDS011;42177;48.914;18.160;2022-11-06T08:05:01;12.1;;;7.5;;
56271;SDS011;42177;48.914;18.160;2022-11-06T08:10:01;14;;;7.5;;
56271;SDS011;42177;48.914;18.160;2022-11-06T08:15:01;14;;;7.5;;
56271;SDS011;42177;48.914;18.160;2022-11-06T08:20:01;12.5;;;8;;
56271;SDS011;42177;48.914;18.160;2022-11-06T08:25:01;12.5;;;8;;
56271;SDS011;42177;48.914;18.160;2022-11-06T08:30:01;13.9;;;8.3;;
56271;SDS011;42177;48.914;18.160;2022-11-06T08:35:01;13.9;;;8.3;;
56271;SDS011;42177;48.914;18.160;2022-11-06T08:40:01;17.3;;;8.7;;
56271;SDS011;42177;48.914;18.160;2022-11-06T08:45:01;17.3;;;8.7;;
56271;SDS011;42177;48.914;18.160;2022-11-06T08:50:01;14.2;;;8.3;;
56271;SDS011;42177;48.914;18.160;2022-11-06T08:55:01;14.2;;;8.3;;
56271;SDS011;42177;48.914;18.160;2022-11-06T09:00:02;13.7;;;8.8;;
56271;SDS011;42177;48.914;18.160;2022-11-06T09:05:01;13.7;;;8.8;;
56271;SDS011;42177;48.914;18.160;2022-11-06T09:10:01;15;;;9.3;;
56271;SDS011;42177;48.914;18.160;2022-11-06T09:15:01;15;;;9.3;;
56271;SDS011;42177;48.914;18.160;2022-11-06T09:20:01;15.5;;;9;;
56271;SDS011;42177;48.914;18.160;2022-11-06T09:25:01;15.5;;;9;;
56271;SDS011;42177;48.914;18.160;2022-11-06T09:30:01;17.7;;;8.9;;
56271;SDS011;42177;48.914;18.160;2022-11-06T09:35:01;17.7;;;8.9;;
56271;SDS011;42177;48.914;18.160;2022-11-06T09:40:01;14.6;;;9;;
56271;SDS011;42177;48.914;18.160;2022-11-06T09:45:02;14.6;;;9;;
56271;SDS011;42177;48.914;18.160;2022-11-06T09:50:01;21.1;;;9.6;;
56271;SDS011;42177;48.914;18.160;2022-11-06T09:55:02;21.1;;;9.6;;
56271;SDS011;42177;48.914;18.160;2022-11-06T10:00:02;20.2;;;9.6;;
56271;SDS011;42177;48.914;18.160;2022-11-06T10:05:04;20.2;;;9.6;;
56271;SDS011;42177;48.914;18.160;2022-11-06T10:10:02;12.8;;;8.6;;
56271;SDS011;42177;48.914;18.160;2022-11-06T10:15:03;12.8;;;8.6;;
56271;SDS011;42177;48.914;18.160;2022-11-06T10:20:03;14.3;;;7.9;;
56271;SDS011;42177;48.914;18.160;2022-11-06T10:25:04;14.3;;;7.9;;
56271;SDS011;42177;48.914;18.160;2022-11-06T10:30:03;12.1;;;8.1;;
56271;SDS011;42177;48.914;18.160;2022-11-06T10:35:02;12.1;;;8.1;;
56271;SDS011;42177;48.914;18.160;2022-11-06T10:40:03;11.5;;;7.5;;
56271;SDS011;42177;48.914;18.160;2022-11-06T10:45:02;11.5;;;7.5;;
56271;SDS011;42177;48.914;18.160;2022-11-06T10:50:02;14.6;;;7.5;;
56271;SDS011;42177;48.914;18.160;2022-11-06T10:55:23;14.6;;;7.5;;
56271;SDS011;42177;48.914;18.160;2022-11-06T11:00:01;13;;;7.6;;
56271;SDS011;42177;48.914;18.160;2022-11-06T11:05:01;13;;;7.6;;
56271;SDS011;42177;48.914;18.160;2022-11-06T11:10:12;9.9;;;7.3;;
56271;SDS011;42177;48.914;18.160;2022-11-06T11:15:03;9.9;;;7.3;;
56271;SDS011;42177;48.914;18.160;2022-11-06T11:20:01;12.7;;;7.8;;
56271;SDS011;42177;48.914;18.160;2022-11-06T11:25:02;12.7;;;7.8;;
56271;SDS011;42177;48.914;18.160;2022-11-06T11:30:01;11.6;;;7.3;;
56271;SDS011;42177;48.914;18.160;2022-11-06T11:35:01;11.6;;;7.3;;
56271;SDS011;42177;48.914;18.160;2022-11-06T11:40:17;11.1;;;7.9;;
56271;SDS011;42177;48.914;18.160;2022-11-06T11:45:05;11.1;;;7.9;;
56271;SDS011;42177;48.914;18.160;2022-11-06T11:50:11;12.8;;;8.1;;
56271;SDS011;42177;48.914;18.160;2022-11-06T11:55:01;12.8;;;8.1;;
56271;SDS011;42177;48.914;18.160;2022-11-06T12:00:02;11.3;;;7.3;;
56271;SDS011;42177;48.914;18.160;2022-11-06T12:05:02;11.3;;;7.3;;
56271;SDS011;42177;48.914;18.160;2022-11-06T12:10:02;13.6;;;8.2;;
56271;SDS011;42177;48.914;18.160;2022-11-06T12:15:04;13.6;;;8.2;;
56271;SDS011;42177;48.914;18.160;2022-11-06T12:20:02;11.1;;;7.9;;
56271;SDS011;42177;48.914;18.160;2022-11-06T12:25:02;11.1;;;7.9;;
56271;SDS011;42177;48.914;18.160;2022-11-06T12:30:02;13.9;;;8.6;;
56271;SDS011;42177;48.914;18.160;2022-11-06T12:35:03;13.9;;;8.6;;
56271;SDS011;42177;48.914;18.160;2022-11-06T12:40:02;13.8;;;8.2;;
56271;SDS011;42177;48.914;18.160;2022-11-06T12:45:01;13.8;;;8.2;;
56271;SDS011;42177;48.914;18.160;2022-11-06T12:50:03;13.4;;;8.1;;
56271;SDS011;42177;48.914;18.160;2022-11-06T12:55:05;13.4;;;8.1;;
56271;SDS011;42177;48.914;18.160;2022-11-06T13:00:03;13.8;;;8.1;;
56271;SDS011;42177;48.914;18.160;2022-11-06T13:05:02;13.8;;;8.1;;
56271;SDS011;42177;48.914;18.160;2022-11-06T13:10:05;17.8;;;12.1;;
56271;SDS011;42177;48.914;18.160;2022-11-06T13:15:04;17.8;;;12.1;;
56271;SDS011;42177;48.914;18.160;2022-11-06T13:20:02;11.5;;;8.3;;
56271;SDS011;42177;48.914;18.160;2022-11-06T13:25:03;11.5;;;8.3;;
56271;SDS011;42177;48.914;18.160;2022-11-06T13:30:03;12.2;;;7.9;;
56271;SDS011;42177;48.914;18.160;2022-11-06T13:35:01;12.2;;;7.9;;
56271;SDS011;42177;48.914;18.160;2022-11-06T13:40:02;15;;;8.5;;
56271;SDS011;42177;48.914;18.160;2022-11-06T13:45:01;15;;;8.5;;
56271;SDS011;42177;48.914;18.160;2022-11-06T13:50:03;11.7;;;7.8;;
56271;SDS011;42177;48.914;18.160;2022-11-06T13:55:03;11.7;;;7.8;;
56271;SDS011;42177;48.914;18.160;2022-11-06T14:00:10;9.9;;;7.3;;
56271;SDS011;42177;48.914;18.160;2022-11-06T14:06:06;9.9;;;7.3;;
56271;SDS011;42177;48.914;18.160;2022-11-06T14:10:01;12.6;;;8.3;;
56271;SDS011;42177;48.914;18.160;2022-11-06T14:15:22;12.6;;;8.3;;
56271;SDS011;42177;48.914;18.160;2022-11-06T14:20:04;12.7;;;8.9;;
56271;SDS011;42177;48.914;18.160;2022-11-06T14:25:43;12.7;;;8.9;;
56271;SDS011;42177;48.914;18.160;2022-11-06T14:30:03;18.8;;;12.6;;
56271;SDS011;42177;48.914;18.160;2022-11-06T14:35:29;18.8;;;12.6;;
56271;SDS011;42177;48.914;18.160;2022-11-06T14:40:03;14;;;9.4;;
56271;SDS011;42177;48.914;18.160;2022-11-06T14:45:06;14;;;9.4;;
56271;SDS011;42177;48.914;18.160;2022-11-06T14:50:03;12.9;;;9;;
56271;SDS011;42177;48.914;18.160;2022-11-06T14:55:02;12.9;;;9;;
56271;SDS011;42177;48.914;18.160;2022-11-06T15:00:02;15.8;;;11.5;;
56271;SDS011;42177;48.914;18.160;2022-11-06T15:05:02;15.8;;;11.5;;
56271;SDS011;42177;48.914;18.160;2022-11-06T15:10:01;15.2;;;9.6;;
56271;SDS011;42177;48.914;18.160;2022-11-06T15:15:02;15.2;;;9.6;;
56271;SDS011;42177;48.914;18.160;2022-11-06T15:20:06;15.1;;;9;;
56271;SDS011;42177;48.914;18.160;2022-11-06T15:25:19;15.1;;;9;;
56271;SDS011;42177;48.914;18.160;2022-11-06T15:30:02;12.5;;;9.1;;
56271;SDS011;42177;48.914;18.160;2022-11-06T15:35:02;12.5;;;9.1;;
56271;SDS011;42177;48.914;18.160;2022-11-06T15:40:02;13.3;;;9;;
56271;SDS011;42177;48.914;18.160;2022-11-06T15:45:06;13.3;;;9;;
56271;SDS011;42177;48.914;18.160;2022-11-06T15:50:07;11.8;;;8.4;;
56271;SDS011;42177;48.914;18.160;2022-11-06T15:55:01;11.8;;;8.4;;
56271;SDS011;42177;48.914;18.160;2022-11-06T16:00:09;14.6;;;8.6;;
56271;SDS011;42177;48.914;18.160;2022-11-06T16:05:01;14.6;;;8.6;;
56271;SDS011;42177;48.914;18.160;2022-11-06T16:10:01;15.1;;;9.5;;
56271;SDS011;42177;48.914;18.160;2022-11-06T16:15:01;15.1;;;9.5;;
56271;SDS011;42177;48.914;18.160;2022-11-06T16:20:01;13.9;;;9.2;;
56271;SDS011;42177;48.914;18.160;2022-11-06T16:25:02;13.9;;;9.2;;
56271;SDS011;42177;48.914;18.160;2022-11-06T16:30:02;13.5;;;9.6;;
56271;SDS011;42177;48.914;18.160;2022-11-06T16:35:01;13.5;;;9.6;;
56271;SDS011;42177;48.914;18.160;2022-11-06T16:40:01;15.2;;;10.6;;
56271;SDS011;42177;48.914;18.160;2022-11-06T16:45:06;15.2;;;10.6;;
56271;SDS011;42177;48.914;18.160;2022-11-06T16:50:01;18.8;;;11.8;;
56271;SDS011;42177;48.914;18.160;2022-11-06T16:55:02;18.8;;;11.8;;
56271;SDS011;42177;48.914;18.160;2022-11-06T17:00:03;17.9;;;11.7;;
56271;SDS011;42177;48.914;18.160;2022-11-06T17:05:06;17.9;;;11.7;;
56271;SDS011;42177;48.914;18.160;2022-11-06T17:15:01;14.5;;;10.2;;
56271;SDS011;42177;48.914;18.160;2022-11-06T17:20:01;15;;;11.6;;
56271;SDS011;42177;48.914;18.160;2022-11-06T17:25:01;15;;;11.6;;
56271;SDS011;42177;48.914;18.160;2022-11-06T17:30:01;21.4;;;13.3;;
56271;SDS011;42177;48.914;18.160;2022-11-06T17:35:01;21.4;;;13.3;;
56271;SDS011;42177;48.914;18.160;2022-11-06T17:40:01;17.3;;;12.5;;
56271;SDS011;42177;48.914;18.160;2022-11-06T17:45:01;17.3;;;12.5;;
56271;SDS011;42177;48.914;18.160;2022-11-06T17:50:01;16.2;;;11;;
56271;SDS011;42177;48.914;18.160;2022-11-06T17:55:01;16.2;;;11;;
56271;SDS011;42177;48.914;18.160;2022-11-06T18:00:01;16.3;;;11.3;;
56271;SDS011;42177;48.914;18.160;2022-11-06T18:05:01;16.3;;;11.3;;
56271;SDS011;42177;48.914;18.160;2022-11-06T18:10:01;17.9;;;11.7;;
56271;SDS011;42177;48.914;18.160;2022-11-06T18:15:01;17.9;;;11.7;;
56271;SDS011;42177;48.914;18.160;2022-11-06T18:20:01;16.4;;;12.2;;
56271;SDS011;42177;48.914;18.160;2022-11-06T18:25:01;16.4;;;12.2;;
56271;SDS011;42177;48.914;18.160;2022-11-06T18:30:01;16.9;;;12.8;;
56271;SDS011;42177;48.914;18.160;2022-11-06T18:35:01;16.9;;;12.8;;
56271;SDS011;42177;48.914;18.160;2022-11-06T18:40:01;18.1;;;12.7;;
56271;SDS011;42177;48.914;18.160;2022-11-06T18:45:01;18.1;;;12.7;;
56271;SDS011;42177;48.914;18.160;2022-11-06T18:50:01;18.2;;;12.9;;
56271;SDS011;42177;48.914;18.160;2022-11-06T18:55:01;18.2;;;12.9;;
56271;SDS011;42177;48.914;18.160;2022-11-06T19:00:01;15.5;;;11.9;;
56271;SDS011;42177;48.914;18.160;2022-11-06T19:05:01;15.5;;;11.9;;
56271;SDS011;42177;48.914;18.160;2022-11-06T19:10:01;17;;;10.7;;
56271;SDS011;42177;48.914;18.160;2022-11-06T19:15:01;17;;;10.7;;
56271;SDS011;42177;48.914;18.160;2022-11-06T19:20:01;19.4;;;12.2;;
56271;SDS011;42177;48.914;18.160;2022-11-06T19:25:01;19.4;;;12.2;;
56271;SDS011;42177;48.914;18.160;2022-11-06T19:30:01;16.3;;;12;;
56271;SDS011;42177;48.914;18.160;2022-11-06T19:35:01;16.3;;;12;;
56271;SDS011;42177;48.914;18.160;2022-11-06T19:40:01;15;;;11.6;;
56271;SDS011;42177;48.914;18.160;2022-11-06T19:45:01;15;;;11.6;;
56271;SDS011;42177;48.914;18.160;2022-11-06T19:50:01;16.9;;;12.3;;
56271;SDS011;42177;48.914;18.160;2022-11-06T19:55:01;16.9;;;12.3;;
56271;SDS011;42177;48.914;18.160;2022-11-06T20:00:01;18.4;;;12.8;;
56271;SDS011;42177;48.914;18.160;2022-11-06T20:05:01;18.4;;;12.8;;
56271;SDS011;42177;48.914;18.160;2022-11-06T20:10:01;18.4;;;13.9;;
56271;SDS011;42177;48.914;18.160;2022-11-06T20:15:01;18.4;;;13.9;;
56271;SDS011;42177;48.914;18.160;2022-11-06T20:20:01;21.5;;;14;;
56271;SDS011;42177;48.914;18.160;2022-11-06T20:25:01;21.5;;;14;;
56271;SDS011;42177;48.914;18.160;2022-11-06T20:30:01;16.4;;;12.9;;
56271;SDS011;42177;48.914;18.160;2022-11-06T20:35:02;16.4;;;12.9;;
56271;SDS011;42177;48.914;18.160;2022-11-06T20:40:01;17.4;;;12.9;;
56271;SDS011;42177;48.914;18.160;2022-11-06T20:45:01;17.4;;;12.9;;
56271;SDS011;42177;48.914;18.160;2022-11-06T20:50:01;17.1;;;12.9;;
56271;SDS011;42177;48.914;18.160;2022-11-06T20:55:01;17.1;;;12.9;;
56271;SDS011;42177;48.914;18.160;2022-11-06T21:00:02;16.3;;;12.4;;
56271;SDS011;42177;48.914;18.160;2022-11-06T21:05:01;16.3;;;12.4;;
56271;SDS011;42177;48.914;18.160;2022-11-06T21:10:01;17.7;;;12.6;;
56271;SDS011;42177;48.914;18.160;2022-11-06T21:15:01;17.7;;;12.6;;
56271;SDS011;42177;48.914;18.160;2022-11-06T21:20:01;16.6;;;11.7;;
56271;SDS011;42177;48.914;18.160;2022-11-06T21:25:01;16.6;;;11.7;;
56271;SDS011;42177;48.914;18.160;2022-11-06T21:30:01;18.7;;;12.8;;
56271;SDS011;42177;48.914;18.160;2022-11-06T21:35:01;18.7;;;12.8;;
56271;SDS011;42177;48.914;18.160;2022-11-06T21:40:01;17.8;;;12.2;;
56271;SDS011;42177;48.914;18.160;2022-11-06T21:45:01;17.8;;;12.2;;
56271;SDS011;42177;48.914;18.160;2022-11-06T21:50:01;16.4;;;12.4;;
56271;SDS011;42177;48.914;18.160;2022-11-06T21:55:01;16.4;;;12.4;;
56271;SDS011;42177;48.914;18.160;2022-11-06T22:00:02;17.2;;;13.3;;
56271;SDS011;42177;48.914;18.160;2022-11-06T22:05:01;17.2;;;13.3;;
56271;SDS011;42177;48.914;18.160;2022-11-06T22:10:01;16.5;;;12.3;;
56271;SDS011;42177;48.914;18.160;2022-11-06T22:15:02;16.5;;;12.3;;
56271;SDS011;42177;48.914;18.160;2022-11-06T22:20:01;17.3;;;13.2;;
56271;SDS011;42177;48.914;18.160;2022-11-06T22:25:02;17.3;;;13.2;;
56271;SDS011;42177;48.914;18.160;2022-11-06T22:30:01;18.5;;;13.4;;
56271;SDS011;42177;48.914;18.160;2022-11-06T22:35:01;18.5;;;13.4;;
56271;SDS011;42177;48.914;18.160;2022-11-06T22:40:01;16.1;;;12.8;;
56271;SDS011;42177;48.914;18.160;2022-11-06T22:45:01;16.1;;;12.8;;
56271;SDS011;42177;48.914;18.160;2022-11-06T22:50:01;15.3;;;12.1;;
56271;SDS011;42177;48.914;18.160;2022-11-06T22:55:01;15.3;;;12.1;;
56271;SDS011;42177;48.914;18.160;2022-11-06T23:00:02;16.8;;;12.7;;
56271;SDS011;42177;48.914;18.160;2022-11-06T23:05:01;16.8;;;12.7;;
56271;SDS011;42177;48.914;18.160;2022-11-06T23:10:01;17.3;;;13.1;;
56271;SDS011;42177;48.914;18.160;2022-11-06T23:15:01;17.3;;;13.1;;
56271;SDS011;42177;48.914;18.160;2022-11-06T23:20:01;15.8;;;12.4;;
56271;SDS011;42177;48.914;18.160;2022-11-06T23:25:01;15.8;;;12.4;;
56271;SDS011;42177;48.914;18.160;2022-11-06T23:30:02;15.6;;;12.7;;
56271;SDS011;42177;48.914;18.160;2022-11-06T23:35:01;15.6;;;12.7;;
56271;SDS011;42177;48.914;18.160;2022-11-06T23:40:02;15.2;;;12.1;;
56271;SDS011;42177;48.914;18.160;2022-11-06T23:45:02;15.2;;;12.1;;
56271;SDS011;42177;48.914;18.160;2022-11-06T23:50:01;17;;;13;;
56271;SDS011;42177;48.914;18.160;2022-11-06T23:55:01;17;;;13;;
